Time;durP1;ratioP1;P1;durP2;ratioP2;P2;SDS_P1;SDS_P2;PMS_P1;PMS_P2;Temp;Humidity;BMP_temperature;BMP_pressure;BME280_temperature;BME280_humidity;BME280_pressure;Samples;Min_cycle;Max_cycle;Signal;HPM_P1;HPM_P2
2022/04/17 00:01:51;;;;;;;6.43;3.20;;;;;;;11.82;55.54;97585.97;10289394;28;20545;-60
2022/04/17 00:06:50;;;;;;;4.15;3.30;;;;;;;11.79;54.76;97580.81;10289618;28;20527;-61
2022/04/17 00:11:49;;;;;;;6.38;3.88;;;;;;;11.56;54.76;97547.22;10288240;28;20069;-61
2022/04/17 00:16:48;;;;;;;6.70;3.60;;;;;;;11.59;55.21;97551.53;10289247;28;20041;-61
2022/04/17 00:21:47;;;;;;;5.18;2.92;;;;;;;11.20;55.79;97505.06;10289190;28;20034;-61
2022/04/17 00:26:46;;;;;;;5.65;3.30;;;;;;;11.62;56.11;97567.97;10289035;28;20113;-61
2022/04/17 00:31:45;;;;;;;7.13;3.58;;;;;;;10.95;56.33;97488.78;10289128;28;20132;-61
2022/04/17 00:36:44;;;;;;;5.07;3.13;;;;;;;10.91;57.14;97484.50;10288949;28;20095;-61
2022/04/17 00:41:43;;;;;;;4.55;2.92;;;;;;;11.50;56.48;97583.63;10288467;28;20491;-61
2022/04/17 00:46:42;;;;;;;5.82;3.75;;;;;;;11.42;56.10;97573.31;10294757;28;20052;-61
2022/04/17 00:51:47;;;;;;;5.32;3.45;;;;;;;11.45;56.77;97570.69;10296968;28;20540;-61
2022/04/17 00:56:50;;;;;;;6.00;3.67;;;;;;;11.37;57.08;97563.84;10295688;28;20365;-60
2022/04/17 01:01:49;;;;;;;6.45;4.03;;;;;;;11.17;57.93;97538.84;10295803;28;20053;-60
2022/04/17 01:06:48;;;;;;;6.28;3.75;;;;;;;11.24;58.14;97556.13;10295417;28;20069;-61
2022/04/17 01:11:48;;;;;;;6.90;4.05;;;;;;;10.71;59.52;97478.56;10294935;28;20061;-60
2022/04/17 01:16:47;;;;;;;6.40;3.50;;;;;;;10.89;60.18;97522.56;10294956;28;20057;-60
2022/04/17 01:21:47;;;;;;;6.28;3.70;;;;;;;10.73;60.44;97494.94;10294836;28;20065;-61
2022/04/17 01:26:56;;;;;;;6.28;3.17;;;;;;;10.83;60.75;97504.44;10294883;28;20459;-60
2022/04/17 01:31:55;;;;;;;4.82;3.00;;;;;;;10.92;61.43;97537.28;10293153;28;20070;-61
2022/04/17 01:36:54;;;;;;;8.07;3.67;;;;;;;10.92;62.32;97545.94;10294923;28;20410;-61
2022/04/17 01:41:55;;;;;;;4.68;3.10;;;;;;;10.25;61.92;97442.47;10294035;28;20061;-61
2022/04/17 01:46:55;;;;;;;5.47;3.05;;;;;;;9.96;63.08;97420.13;10293944;28;20057;-61
2022/04/17 01:51:55;;;;;;;4.15;2.42;;;;;;;10.64;63.76;97532.22;10293540;28;20077;-61
2022/04/17 01:56:55;;;;;;;5.30;2.80;;;;;;;10.65;63.85;97533.06;10293136;28;20554;-61
2022/04/17 02:01:54;;;;;;;5.85;3.28;;;;;;;10.52;65.17;97537.44;10293471;28;20053;-60
2022/04/17 02:06:53;;;;;;;5.05;2.92;;;;;;;10.32;65.56;97504.66;10293091;28;20622;-60
2022/04/17 02:11:53;;;;;;;5.18;2.90;;;;;;;10.33;66.05;97527.16;10292053;28;20077;-60
2022/04/17 02:16:52;;;;;;;6.95;3.30;;;;;;;10.41;67.22;97550.47;10293076;28;20495;-61
2022/04/17 02:21:51;;;;;;;6.57;3.20;;;;;;;10.48;67.99;97556.50;10292544;28;20518;-61
2022/04/17 02:26:50;;;;;;;6.63;3.25;;;;;;;10.45;69.10;97540.94;10292682;28;20527;-61
2022/04/17 02:31:49;;;;;;;4.57;3.17;;;;;;;10.19;70.09;97513.34;10292067;28;20513;-61
2022/04/17 02:36:48;;;;;;;5.60;2.95;;;;;;;10.11;70.74;97526.34;10292071;28;20543;-61
2022/04/17 02:41:47;;;;;;;5.97;3.47;;;;;;;10.05;71.82;97526.38;10291693;28;20025;-61
2022/04/17 02:52:04;;;;;;;8.75;4.35;;;;;;;9.67;74.56;97531.63;10291515;28;20081;-61
2022/04/17 02:57:03;;;;;;;10.13;5.38;;;;;;;9.22;76.30;97489.31;10291215;28;20061;-61
2022/04/17 03:07:20;;;;;;;8.25;4.53;;;;;;;9.18;76.53;97483.25;10290065;28;20480;-61
2022/04/17 03:12:19;;;;;;;;;;;;;;;9.61;77.05;97529.06;10291008;28;20057;-61
2022/04/17 03:17:18;;;;;;;6.32;3.28;;;;;;;9.46;76.73;97506.59;10290818;28;19909;-61
2022/04/17 03:22:17;;;;;;;6.82;3.70;;;;;;;9.32;76.44;97496.25;10290168;28;20064;-61
2022/04/17 03:27:16;;;;;;;6.57;3.72;;;;;;;9.64;76.77;97553.22;10288863;28;20061;-61
2022/04/17 03:32:15;;;;;;;6.57;4.00;;;;;;;9.55;76.75;97545.44;10290222;28;20053;-61
2022/04/17 03:37:16;;;;;;;8.05;4.60;;;;;;;9.61;77.01;97561.00;10290239;28;20057;-61
2022/04/17 03:42:16;;;;;;;8.10;4.35;;;;;;;9.41;77.82;97542.84;10289703;28;20065;-61
2022/04/17 03:47:15;;;;;;;7.40;3.63;;;;;;;8.69;77.94;97427.19;10289761;28;20057;-61
2022/04/17 03:52:14;;;;;;;6.10;3.70;;;;;;;9.43;78.61;97553.22;10289933;28;20088;-61
2022/04/17 03:57:13;;;;;;;5.60;2.85;;;;;;;9.30;79.08;97552.34;10289554;28;20034;-61
2022/04/17 04:02:12;;;;;;;7.13;3.90;;;;;;;9.22;79.22;97551.44;10289545;28;20571;-61
2022/04/17 04:07:11;;;;;;;8.45;3.70;;;;;;;9.22;79.80;97559.22;10288932;28;20471;-61
2022/04/17 04:12:10;;;;;;;7.60;4.13;;;;;;;9.27;80.90;97560.94;10289325;28;20069;-61
2022/04/17 04:17:09;;;;;;;7.65;3.60;;;;;;;9.31;81.23;97551.50;10289541;28;20062;-61
2022/04/17 04:22:08;;;;;;;7.15;3.22;;;;;;;9.32;81.83;97551.50;10297118;28;20061;-61
2022/04/17 04:32:24;;;;;;;6.95;3.88;;;;;;;9.34;82.58;97547.16;10296897;28;20065;-61
2022/04/17 04:37:23;;;;;;;7.32;3.22;;;;;;;9.33;82.67;97555.81;10296598;28;20018;-61
2022/04/17 04:42:22;;;;;;;6.40;3.40;;;;;;;9.12;82.70;97522.09;10286285;28;20133;-62
2022/04/17 04:47:21;;;;;;;5.68;3.08;;;;;;;9.36;82.89;97544.59;10296275;28;20058;-61
2022/04/17 04:52:21;;;;;;;4.75;2.70;;;;;;;9.41;83.30;97536.81;10296137;28;20120;-61
2022/04/17 04:57:20;;;;;;;7.00;3.70;;;;;;;9.34;82.69;97536.81;10296194;28;20061;-60
2022/04/17 05:02:19;;;;;;;6.18;3.85;;;;;;;9.30;83.15;97541.97;10295522;28;20432;-60
2022/04/17 05:07:18;;;;;;;5.40;3.15;;;;;;;9.32;83.42;97528.19;10295535;28;20034;-60
2022/04/17 05:12:17;;;;;;;6.82;3.95;;;;;;;8.98;83.70;97459.13;10294795;28;20036;-62
2022/04/17 05:17:16;;;;;;;;;;;;;;;9.33;83.88;97527.31;10295887;28;20061;-62
2022/04/17 05:22:20;;;;;;;8.65;4.38;;;;;;;8.94;84.08;97479.78;10295114;28;19964;-61
2022/04/17 05:27:19;;;;;;;9.85;4.78;;;;;;;8.96;84.18;97478.97;10294336;28;20105;-61
2022/04/17 05:32:17;;;;;;;9.30;3.38;;;;;;;9.21;84.80;97521.22;10294346;28;20061;-60
2022/04/17 05:37:16;;;;;;;6.32;3.70;;;;;;;9.01;84.65;97523.81;10294380;28;20026;-60
2022/04/17 05:42:15;;;;;;;6.30;3.38;;;;;;;9.05;84.81;97522.97;10294358;28;20026;-61
2022/04/17 05:47:15;;;;;;;5.00;2.72;;;;;;;8.90;84.77;97483.28;10293989;28;20038;-61
2022/04/17 05:52:14;;;;;;;;;;;;;;;9.22;84.98;97531.59;10294271;28;20518;-61
2022/04/17 05:57:13;;;;;;;28.25;16.48;;;;;;;9.29;84.94;97516.97;10293619;28;19968;-60
2022/04/17 06:02:13;;;;;;;30.88;15.43;;;;;;;9.08;84.95;97522.97;10293328;28;20113;-61
2022/04/17 06:07:12;;;;;;;25.08;12.63;;;;;;;7.87;85.39;97347.72;10292834;28;20077;-61
2022/04/17 06:12:11;;;;;;;7.28;4.20;;;;;;;8.69;85.72;97490.97;10279788;28;20061;-61
2022/04/17 06:17:10;;;;;;;39.83;17.83;;;;;;;8.66;85.78;97478.88;10292849;28;20057;-61
2022/04/17 06:22:11;;;;;;;11.20;5.80;;;;;;;8.94;86.42;97515.16;10292501;28;20037;-61
2022/04/17 06:27:10;;;;;;;132.13;43.85;;;;;;;9.02;86.51;97507.41;10291796;28;20492;-61
2022/04/17 06:32:09;;;;;;;53.33;22.98;;;;;;;9.04;86.55;97501.38;10292008;28;20056;-61
2022/04/17 06:37:08;;;;;;;32.28;17.45;;;;;;;8.64;86.47;97428.03;10292341;28;20062;-61
2022/04/17 06:42:07;;;;;;;7.95;4.53;;;;;;;9.31;86.01;97508.34;10292164;28;20036;-61
2022/04/17 06:47:06;;;;;;;15.00;7.70;;;;;;;9.27;85.90;97472.91;10291494;28;20407;-61
2022/04/17 06:52:05;;;;;;;13.50;6.93;;;;;;;9.56;85.56;97510.94;10291277;28;20046;-62
2022/04/17 06:57:04;;;;;;;16.88;10.75;;;;;;;9.51;85.49;97477.25;10291004;28;20061;-62
2022/04/17 07:02:03;;;;;;;17.90;10.07;;;;;;;9.35;84.60;97466.03;10291461;28;20068;-63
2022/04/17 07:07:02;;;;;;;7.55;3.15;;;;;;;9.58;84.94;97509.16;10291539;28;20092;-63
2022/04/17 07:12:01;;;;;;;157.50;44.08;;;;;;;9.53;84.71;97500.53;10290395;28;20053;-63
2022/04/17 07:17:00;;;;;;;189.45;63.90;;;;;;;9.38;84.50;97448.78;10290518;28;20030;-63
2022/04/17 07:21:59;;;;;;;35.13;17.30;;;;;;;9.75;84.09;97501.41;10290191;28;20112;-62
2022/04/17 07:27:00;;;;;;;14.70;7.07;;;;;;;9.87;84.21;97503.97;10290348;28;20614;-62
2022/04/17 07:31:59;;;;;;;12.57;8.85;;;;;;;9.53;84.12;97465.13;10289975;28;20557;-61
2022/04/17 07:36:59;;;;;;;205.18;50.78;;;;;;;9.33;84.24;97457.41;10290448;28;20109;-61
2022/04/17 07:41:59;;;;;;;116.60;37.17;;;;;;;9.62;85.26;97505.72;10290126;28;20065;-61
2022/04/17 07:46:58;;;;;;;4.47;2.28;;;;;;;8.86;86.35;97522.06;10289118;28;20445;-61
2022/04/17 07:51:57;;;;;;;7.68;3.25;;;;;;;8.00;89.12;97511.41;10290959;28;20081;-61
2022/04/17 07:56:56;;;;;;;2.72;1.75;;;;;;;7.81;90.08;97510.44;10297965;28;20120;-61
2022/04/17 08:02:01;;;;;;;2.70;1.85;;;;;;;7.55;92.28;97477.56;10297773;28;20476;-62
2022/04/17 08:07:00;;;;;;;3.80;2.10;;;;;;;7.28;93.55;97446.38;10297293;28;20069;-62
2022/04/17 08:12:01;;;;;;;2.63;1.73;;;;;;;7.53;93.55;97514.56;10297692;28;20038;-62
2022/04/17 08:17:00;;;;;;;6.05;2.85;;;;;;;6.55;94.17;97359.81;10297471;28;20523;-61
2022/04/17 08:21:59;;;;;;;3.55;2.40;;;;;;;7.27;95.24;97506.59;10293164;28;20522;-62
2022/04/17 08:26:58;;;;;;;5.75;2.97;;;;;;;6.87;96.40;97465.84;10294067;28;20104;-61
2022/04/17 08:31:58;;;;;;;5.53;2.70;;;;;;;6.70;95.98;97462.22;10293770;28;20061;-61
2022/04/17 08:36:57;;;;;;;3.83;2.25;;;;;;;6.67;96.21;97467.34;10296279;28;20058;-62
2022/04/17 08:41:59;;;;;;;3.85;2.10;;;;;;;6.55;96.72;97462.94;10296988;28;20073;-62
2022/04/17 08:46:58;;;;;;;4.97;2.92;;;;;;;6.04;96.54;97372.22;10296145;28;20507;-62
2022/04/17 08:51:59;;;;;;;1.63;1.30;;;;;;;6.66;97.04;97497.44;10296183;28;20515;-62
2022/04/17 08:56:58;;;;;;;5.25;3.38;;;;;;;6.57;97.17;97484.44;10295681;28;20065;-63
2022/04/17 09:02:04;;;;;;;3.60;2.30;;;;;;;6.51;97.71;97476.63;10295584;28;20120;-63
2022/04/17 09:07:10;;;;;;;23.50;9.90;;;;;;;6.67;97.75;97463.06;10294622;28;20103;-64
2022/04/17 09:12:17;;;;;;;11.55;6.88;;;;;;;6.98;96.91;97492.59;10294550;28;20112;-64
2022/04/17 09:17:18;;;;;;;12.25;5.97;;;;;;;6.91;96.22;97488.19;10294817;28;20095;-62
2022/04/17 09:22:17;;;;;;;12.73;5.28;;;;;;;7.01;95.91;97545.94;10294987;28;20495;-62
2022/04/17 09:27:16;;;;;;;2.10;1.52;;;;;;;6.49;96.87;97509.25;10294928;28;20564;-61
2022/04/17 09:32:20;;;;;;;1.65;1.20;;;;;;;6.00;97.57;97482.91;10294693;28;20141;-62
2022/04/17 09:37:20;;;;;;;2.60;1.40;;;;;;;5.90;98.61;97530.88;10294656;28;20447;-65
2022/04/17 09:42:23;;;;;;;8.38;3.55;;;;;;;6.13;100.00;97520.88;10293122;28;20084;-65
2022/04/17 09:47:29;;;;;;;6.38;3.40;;;;;;;5.50;100.00;97445.38;10293743;28;20069;-65
2022/04/17 09:52:39;;;;;;;0.50;0.50;;;;;;;5.44;100.00;97471.88;10294049;28;20081;-66
2022/04/17 09:57:40;;;;;;;2.55;1.90;;;;;;;5.58;100.00;97521.00;10293777;28;20058;-66
2022/04/17 10:02:41;;;;;;;7.28;4.20;;;;;;;5.49;100.00;97511.41;10293625;28;20483;-67
2022/04/17 10:07:42;;;;;;;10.07;5.28;;;;;;;5.57;100.00;97523.53;10293327;28;20088;-66
2022/04/17 10:12:46;;;;;;;4.43;2.47;;;;;;;5.18;100.00;97460.31;10292774;28;20476;-67
2022/04/17 10:17:47;;;;;;;3.60;2.28;;;;;;;5.64;100.00;97527.94;10291851;28;20547;-66
2022/04/17 10:22:57;;;;;;;3.15;2.10;;;;;;;5.47;100.00;97518.25;10292549;28;20061;-65
2022/04/17 10:28:00;;;;;;;2.25;1.70;;;;;;;5.52;100.00;97513.16;10292426;28;20065;-65
2022/04/17 10:33:29;;;;;;;4.00;1.85;;;;;;;5.39;100.00;97486.41;10292163;28;20092;-66
2022/04/17 10:39:15;;;;;;;6.63;3.13;;;;;;;5.53;100.00;97518.34;10291889;28;20057;-66
2022/04/17 10:44:15;;;;;;;2.42;1.77;;;;;;;5.60;100.00;97495.25;10291876;28;20076;-65
2022/04/17 10:49:22;;;;;;;3.20;1.35;;;;;;;5.00;100.00;97423.19;10291342;28;20080;-64
2022/04/17 10:54:21;;;;;;;1.65;1.52;;;;;;;5.44;100.00;97507.91;10291610;28;20076;-64
2022/04/17 10:59:28;;;;;;;0.80;0.80;;;;;;;5.11;100.00;97509.13;10291477;28;20065;-63
2022/04/17 11:04:27;;;;;;;2.33;1.65;;;;;;;5.19;100.00;97506.66;10291406;28;20069;-64
2022/04/17 11:09:26;;;;;;;2.85;2.30;;;;;;;5.18;100.00;97509.19;10290937;28;20066;-63
2022/04/17 11:14:27;;;;;;;3.08;1.85;;;;;;;5.18;100.00;97511.75;10291019;28;20029;-62
2022/04/17 11:19:29;;;;;;;2.50;1.70;;;;;;;5.12;100.00;97515.13;10290580;28;20068;-64
2022/04/17 11:24:54;;;;;;;3.55;2.13;;;;;;;5.20;100.00;97515.22;10290777;28;20069;-63
2022/04/17 11:29:53;;;;;;;1.25;1.15;;;;;;;3.96;100.00;97303.25;10289187;28;20101;-62
2022/04/17 11:34:55;;;;;;;2.63;1.98;;;;;;;5.18;100.00;97520.38;10291004;28;20531;-62
2022/04/17 11:40:00;;;;;;;1.67;1.10;;;;;;;4.57;100.00;97422.47;10290167;28;20065;-64
2022/04/17 11:45:00;;;;;;;1.50;1.40;;;;;;;5.16;100.00;97516.00;10289645;28;20877;-64
2022/04/17 11:49:59;;;;;;;2.95;1.27;;;;;;;4.72;100.00;97504.13;10289634;28;20078;-64
2022/04/17 11:54:59;;;;;;;2.65;1.42;;;;;;;4.10;100.00;97413.91;10269232;28;20049;-64
2022/04/17 12:00:00;;;;;;;3.20;1.80;;;;;;;4.85;100.00;97516.34;10290130;28;20093;-64
2022/04/17 12:05:06;;;;;;;5.22;2.50;;;;;;;5.03;100.00;97513.25;10289693;28;20488;-64
2022/04/17 12:10:09;;;;;;;3.97;2.30;;;;;;;4.77;100.00;97474.22;10289320;28;20445;-65
2022/04/17 12:15:10;;;;;;;3.92;2.50;;;;;;;4.58;100.00;97439.63;10289264;28;20519;-65
2022/04/17 12:20:13;;;;;;;1.88;1.33;;;;;;;4.46;100.00;97424.00;10289146;28;20068;-64
2022/04/17 12:25:24;;;;;;;3.42;1.90;;;;;;;4.95;100.00;97511.38;10288756;28;20068;-63
2022/04/17 12:30:25;;;;;;;3.30;1.75;;;;;;;4.79;100.00;97502.53;10288470;28;20065;-64
2022/04/17 12:35:28;;;;;;;3.45;1.27;;;;;;;4.37;100.00;97434.97;10289012;28;20069;-64
2022/04/17 12:40:27;;;;;;;3.58;1.02;;;;;;;4.11;100.00;97410.50;10292364;28;20061;-63
2022/04/17 12:45:26;;;;;;;1.42;1.17;;;;;;;4.20;100.00;97451.78;10296197;28;20037;-63
2022/04/17 12:50:25;;;;;;;2.75;1.45;;;;;;;4.19;100.00;97434.63;10296158;28;20115;-63
2022/04/17 12:55:34;;;;;;;1.55;1.42;;;;;;;3.87;100.00;97370.69;10296444;28;20069;-62
2022/04/17 13:00:33;;;;;;;2.20;1.52;;;;;;;4.54;100.00;97488.34;10295584;28;20495;-62
2022/04/17 13:05:32;;;;;;;3.28;1.73;;;;;;;3.91;100.00;97412.69;10295268;28;20522;-62
2022/04/17 13:10:32;;;;;;;2.70;1.85;;;;;;;4.13;100.00;97460.16;10295295;28;20065;-62
2022/04/17 13:15:34;;;;;;;3.90;1.90;;;;;;;3.71;100.00;97399.47;10295295;28;20069;-63
2022/04/17 13:20:35;;;;;;;2.42;1.67;;;;;;;4.11;100.00;97472.13;10295483;28;20057;-63
2022/04/17 13:25:34;;;;;;;4.05;1.98;;;;;;;3.99;100.00;97472.75;10294843;28;20095;-63
2022/04/17 13:30:33;;;;;;;5.00;2.85;;;;;;;3.94;100.00;97470.09;10294089;28;20034;-64
2022/04/17 13:35:32;;;;;;;1.75;1.52;;;;;;;3.66;100.00;97453.25;10294458;28;20554;-63
2022/04/17 13:40:31;;;;;;;4.18;2.25;;;;;;;3.64;100.00;97481.44;10294306;28;20476;-63
2022/04/17 13:45:30;;;;;;;6.18;3.22;;;;;;;3.24;100.00;97420.69;10293594;28;20381;-64
2022/04/17 13:50:29;;;;;;;8.63;4.53;;;;;;;3.47;100.00;97462.22;10293698;28;20069;-64
2022/04/17 13:55:28;;;;;;;4.20;2.50;;;;;;;3.15;100.00;97403.41;10293671;28;20052;-63
2022/04/17 14:00:28;;;;;;;4.38;2.72;;;;;;;3.31;100.00;97440.53;10293404;28;20058;-63
2022/04/17 14:05:27;;;;;;;7.35;3.42;;;;;;;2.90;100.00;97378.91;10293366;28;20076;-63
2022/04/17 14:10:26;;;;;;;4.30;2.92;;;;;;;2.78;100.00;97337.63;10292927;28;20063;-63
2022/04/17 14:15:25;;;;;;;3.92;2.30;;;;;;;3.07;100.00;97392.09;10291128;28;20467;-63
2022/04/17 14:20:24;;;;;;;10.43;4.80;;;;;;;2.80;100.00;97344.53;10292630;28;20121;-63
2022/04/17 14:25:23;;;;;;;6.57;3.55;;;;;;;3.49;100.00;97469.97;10292761;28;20041;-63
2022/04/17 14:30:22;;;;;;;6.47;3.67;;;;;;;2.84;100.00;97401.84;10290971;28;20131;-64
2022/04/17 14:35:21;;;;;;;10.52;4.05;;;;;;;3.10;100.00;97429.78;10292114;28;20042;-63
2022/04/17 14:40:20;;;;;;;2.92;2.60;;;;;;;3.09;100.00;97475.03;10292023;28;20061;-63
2022/04/17 14:45:25;;;;;;;1.67;1.38;;;;;;;2.94;100.00;97480.66;10291509;28;20045;-62
2022/04/17 14:50:24;;;;;;;2.33;1.38;;;;;;;3.07;100.00;97479.25;10288510;28;20081;-63
2022/04/17 14:55:23;;;;;;;1.58;1.08;;;;;;;2.57;100.00;97423.38;10291285;28;20069;-63
2022/04/17 15:00:22;;;;;;;6.85;2.92;;;;;;;2.78;100.00;97484.53;10283155;28;20057;-63
2022/04/17 15:05:21;;;;;;;1.25;1.15;;;;;;;2.59;100.00;97492.59;10277458;28;20045;-62
2022/04/17 15:10:20;;;;;;;7.03;2.97;;;;;;;2.48;100.00;97479.50;10271558;28;20515;-63
2022/04/17 15:15:19;;;;;;;2.78;1.90;;;;;;;2.10;100.00;97440.09;10290542;28;20026;-63
2022/04/17 15:20:18;;;;;;;;;;;;;;;2.38;100.00;97500.56;10263121;28;20144;-62
2022/04/17 15:25:17;;;;;;;2.13;0.98;;;;;;;1.13;100.00;97309.53;10284349;28;20033;-62
2022/04/17 15:30:16;;;;;;;3.13;1.60;;;;;;;2.04;100.00;97473.19;10290322;28;20026;-62
2022/04/17 15:35:15;;;;;;;15.30;5.78;;;;;;;1.71;100.00;97421.09;10290174;28;20034;-62
2022/04/17 15:40:14;;;;;;;9.32;4.72;;;;;;;1.71;100.00;97426.22;10262662;28;20478;-63
2022/04/17 15:50:30;;;;;;;6.53;3.38;;;;;;;1.89;100.00;97486.41;10290101;28;20081;-63
2022/04/17 15:55:31;;;;;;;4.43;2.25;;;;;;;1.75;100.00;97463.84;10289844;28;20042;-63
2022/04/17 16:00:30;;;;;;;8.43;4.32;;;;;;;1.44;100.00;97405.84;10288549;28;20459;-63
2022/04/17 16:05:29;;;;;;;2.72;2.25;;;;;;;1.96;100.00;97478.09;10270530;28;20473;-63
2022/04/17 16:10:28;;;;;;;1.20;0.90;;;;;;;2.11;100.00;97498.13;10289931;28;20101;-63
2022/04/17 16:15:27;;;;;;;1.90;1.48;;;;;;;2.13;100.00;97494.78;10293154;28;20040;-63
2022/04/17 16:20:26;;;;;;;2.22;1.60;;;;;;;1.57;100.00;97426.66;10297274;28;20034;-63
2022/04/17 16:25:26;;;;;;;3.70;1.98;;;;;;;1.66;100.00;97435.44;10297172;28;20041;-63
2022/04/17 16:30:26;;;;;;;11.27;3.30;;;;;;;1.96;100.00;97488.31;10296812;28;20093;-63
2022/04/17 16:35:25;;;;;;;6.07;3.20;;;;;;;2.10;100.00;97499.81;10296751;28;20076;-63
2022/04/17 16:40:25;;;;;;;10.98;3.60;;;;;;;2.10;100.00;97502.38;10296398;28;20026;-64
2022/04/17 16:45:24;;;;;;;4.28;2.50;;;;;;;1.92;100.00;97499.28;10296613;28;20069;-63
2022/04/17 16:50:22;;;;;;;9.35;3.33;;;;;;;1.79;100.00;97504.91;10294820;28;20052;-64
2022/04/17 16:55:21;;;;;;;4.88;2.42;;;;;;;1.52;100.00;97475.97;10296130;28;20563;-63
2022/04/17 17:00:21;;;;;;;3.35;2.33;;;;;;;1.33;100.00;97464.31;10280782;28;20109;-64
2022/04/17 17:05:21;;;;;;;8.52;3.83;;;;;;;1.61;100.00;97518.84;10255125;28;20497;-64
2022/04/17 17:10:20;;;;;;;4.85;2.35;;;;;;;1.47;100.00;97489.44;10263573;28;20061;-64
2022/04/17 17:15:19;;;;;;;5.03;2.20;;;;;;;1.56;100.00;97548.53;10295502;28;20479;-64
2022/04/17 17:20:18;;;;;;;5.60;2.63;;;;;;;1.53;100.00;97558.69;10294880;28;20033;-64
2022/04/17 17:25:17;;;;;;;5.03;2.17;;;;;;;1.09;100.00;97474.66;10294646;28;20069;-64
2022/04/17 17:30:16;;;;;;;11.05;4.82;;;;;;;1.58;100.00;97569.06;10294941;28;20076;-63
2022/04/17 17:35:15;;;;;;;11.38;5.25;;;;;;;1.29;100.00;97562.19;10293829;28;20096;-64
2022/04/17 17:40:14;;;;;;;7.35;4.10;;;;;;;1.37;100.00;97576.91;10294284;28;20086;-63
2022/04/17 17:45:13;;;;;;;7.72;4.03;;;;;;;0.88;100.00;97497.81;10294870;28;20062;-64
2022/04/17 17:50:12;;;;;;;4.03;2.17;;;;;;;1.46;100.00;97577.22;10293765;28;20042;-64
2022/04/17 17:55:11;;;;;;;6.70;3.45;;;;;;;1.52;100.00;97593.59;10294134;28;20065;-64
2022/04/17 18:00:11;;;;;;;6.05;3.15;;;;;;;1.46;100.00;97600.22;10293785;28;20110;-63
2022/04/17 18:05:10;;;;;;;5.40;3.20;;;;;;;0.97;100.00;97550.06;10293227;28;20068;-63
2022/04/17 18:15:27;;;;;;;6.05;3.40;;;;;;;1.18;100.00;97622.31;10291388;28;20057;-63
2022/04/17 18:20:26;;;;;;;8.13;4.13;;;;;;;0.96;100.00;97591.75;10292242;28;20030;-63
2022/04/17 18:25:27;;;;;;;5.35;2.75;;;;;;;0.95;100.00;97608.75;10292899;28;20036;-63
2022/04/17 18:30:26;;;;;;;9.40;4.07;;;;;;;0.97;100.00;97611.38;10291683;28;20077;-62
2022/04/17 18:35:25;;;;;;;7.30;3.22;;;;;;;1.08;100.00;97631.38;10286674;28;20117;-63
2022/04/17 18:40:24;;;;;;;5.65;3.28;;;;;;;0.80;100.00;97588.69;10291427;28;20514;-63
2022/04/17 18:45:23;;;;;;;4.43;2.25;;;;;;;0.74;100.00;97582.47;10277813;28;20065;-63
2022/04/17 18:50:25;;;;;;;4.53;2.25;;;;;;;1.00;100.00;97621.69;10285415;28;20057;-63
2022/04/17 18:55:30;;;;;;;2.00;1.23;;;;;;;0.83;100.00;97621.13;10289742;28;20068;-63
2022/04/17 19:00:29;;;;;;;5.20;1.98;;;;;;;0.68;100.00;97593.34;10291303;28;20061;-63
2022/04/17 19:05:28;;;;;;;5.57;2.08;;;;;;;0.85;100.00;97622.00;10291245;28;20088;-63
2022/04/17 19:10:27;;;;;;;2.10;1.70;;;;;;;0.59;100.00;97581.13;10290867;28;20077;-62
2022/04/17 19:15:26;;;;;;;2.30;1.30;;;;;;;0.94;100.00;97629.13;10290297;28;20495;-62
2022/04/17 19:20:25;;;;;;;;;;;;;;;0.83;100.00;97621.13;10291315;28;20526;-62
2022/04/17 19:25:24;;;;;;;6.45;2.97;;;;;;;0.82;100.00;97622.78;10290602;28;20427;-61
2022/04/17 19:30:23;;;;;;;3.40;1.20;;;;;;;0.56;100.00;97564.81;10290362;28;20073;-62
2022/04/17 19:35:24;;;;;;;5.70;2.47;;;;;;;0.61;100.00;97606.69;10290078;28;20507;-62
2022/04/17 19:40:23;;;;;;;1.02;0.88;;;;;;;0.03;100.00;97555.31;10290355;28;20061;-61
2022/04/17 19:45:25;;;;;;;;;;;;;;;0.66;100.00;97638.38;10290641;28;20462;-62
2022/04/17 19:50:24;;;;;;;0.30;0.30;;;;;;;0.49;100.00;97630.13;10289865;28;19992;-61
2022/04/17 19:55:23;;;;;;;1.45;0.80;;;;;;;0.37;100.00;97632.22;10289982;28;20512;-61
2022/04/17 20:00:22;;;;;;;0.47;0.25;;;;;;;0.27;100.00;97637.00;10289345;28;20447;-61
2022/04/17 20:05:21;;;;;;;1.05;0.77;;;;;;;0.33;100.00;97626.13;10290353;28;20069;-62
2022/04/17 20:10:20;;;;;;;0.80;0.80;;;;;;;0.37;100.00;97632.22;10289282;28;20046;-62
2022/04/17 20:15:19;;;;;;;2.22;1.33;;;;;;;0.38;100.00;97600.75;10289223;28;20034;-62
2022/04/17 20:20:18;;;;;;;8.15;4.25;;;;;;;0.60;100.00;97635.63;10289660;28;20069;-62
2022/04/17 20:25:18;;;;;;;2.95;1.33;;;;;;;0.42;100.00;97598.38;10289711;28;20037;-62
2022/04/17 20:30:18;;;;;;;2.60;1.75;;;;;;;0.70;100.00;97607.03;10289371;28;20081;-61
2022/04/17 20:35:17;;;;;;;2.95;1.65;;;;;;;0.89;100.00;97631.53;10289670;28;20456;-64
2022/04/17 20:40:16;;;;;;;2.53;1.52;;;;;;;0.88;100.00;97629.81;10287612;28;20062;-63
2022/04/17 20:50:35;;;;;;;5.22;2.53;;;;;;;0.62;100.00;97616.13;10289266;28;20081;-63
2022/04/17 20:55:35;;;;;;;3.72;1.88;;;;;;;0.72;100.00;97632.63;10289023;28;20065;-63
2022/04/17 21:00:35;;;;;;;2.25;1.25;;;;;;;0.64;100.00;97635.78;10290464;28;20053;-63
2022/04/17 21:05:34;;;;;;;;;;;;;;;0.69;100.00;97635.94;10296842;28;20375;-63
2022/04/17 21:10:34;;;;;;;3.28;1.88;;;;;;;0.59;100.00;97637.31;10295173;28;20439;-63
2022/04/17 21:15:33;;;;;;;3.60;1.85;;;;;;;0.63;100.00;97646.78;10295585;28;20068;-63
2022/04/17 21:20:32;;;;;;;5.20;2.78;;;;;;;0.59;100.00;97623.66;10295434;28;20069;-63
2022/04/17 21:25:33;;;;;;;7.90;4.40;;;;;;;0.40;100.00;97597.44;10294953;28;20492;-63
2022/04/17 21:30:32;;;;;;;11.98;6.82;;;;;;;0.28;100.00;97553.63;10292569;28;20317;-63
2022/04/17 21:35:32;;;;;;;5.13;3.55;;;;;;;0.24;100.00;97539.00;10294746;28;20483;-63
2022/04/17 21:40:31;;;;;;;9.30;5.13;;;;;;;0.65;100.00;97609.41;10294491;28;20069;-64
2022/04/17 21:45:30;;;;;;;2.00;1.20;;;;;;;0.54;100.00;97612.41;10294398;28;20031;-64
2022/04/17 21:50:29;;;;;;;1.67;0.95;;;;;;;0.50;100.00;97616.56;10293798;28;20053;-64
2022/04/17 21:55:29;;;;;;;3.65;2.33;;;;;;;0.17;100.00;97552.38;10294270;28;20513;-64
2022/04/17 22:05:49;;;;;;;1.52;1.40;;;;;;;0.22;100.00;97550.88;10293977;28;20065;-64
2022/04/17 22:10:48;;;;;;;3.92;2.40;;;;;;;0.67;100.00;97604.38;10292649;28;20117;-64
2022/04/17 22:15:46;;;;;;;2.30;1.45;;;;;;;0.50;100.00;97608.91;10292835;28;20132;-64
2022/04/17 22:20:46;;;;;;;3.40;2.10;;;;;;;0.52;100.00;97606.38;10292977;28;20101;-64
2022/04/17 22:25:45;;;;;;;2.33;1.23;;;;;;;0.47;100.00;97601.09;10292751;28;20065;-63
2022/04/17 22:30:44;;;;;;;3.50;1.90;;;;;;;0.64;100.00;97586.41;10292609;28;20496;-63
2022/04/17 22:35:44;;;;;;;3.65;1.83;;;;;;;0.49;100.00;97561.19;10292512;28;20426;-63
2022/04/17 22:40:43;;;;;;;2.75;1.55;;;;;;;0.27;100.00;97534.03;10291503;28;20057;-63
2022/04/17 22:45:42;;;;;;;1.77;1.67;;;;;;;0.84;100.00;97594.75;10291906;28;20025;-64
2022/04/17 22:50:41;;;;;;;1.17;1.05;;;;;;;0.86;100.00;97593.97;10291015;28;20048;-63
2022/04/17 22:55:40;;;;;;;;;;;;;;;0.78;100.00;97585.19;10291938;28;20073;-63
2022/04/17 23:05:58;;;;;;;2.55;1.30;;;;;;;0.37;100.00;97548.00;10292433;28;20065;-64
2022/04/17 23:10:57;;;;;;;2.38;1.00;;;;;;;0.53;100.00;97572.38;10290584;28;20042;-63
2022/04/17 23:15:57;;;;;;;1.30;1.20;;;;;;;0.36;100.00;97529.25;10290701;28;20096;-63
2022/04/17 23:20:56;;;;;;;2.25;1.08;;;;;;;0.69;100.00;97567.00;10290641;28;20053;-63
2022/04/17 23:25:55;;;;;;;1.75;0.90;;;;;;;0.52;100.00;97561.28;10290184;28;20076;-63
2022/04/17 23:30:54;;;;;;;1.33;0.90;;;;;;;0.50;100.00;97554.38;10289948;28;20072;-63
2022/04/17 23:35:53;;;;;;;1.85;1.08;;;;;;;0.50;100.00;97551.84;10288817;28;20124;-63
2022/04/17 23:40:52;;;;;;;2.13;1.20;;;;;;;0.38;100.00;97522.53;10290117;28;20065;-63
2022/04/17 23:45:51;;;;;;;1.15;0.90;;;;;;;0.40;100.00;97527.66;10289937;28;20033;-63
2022/04/17 23:50:50;;;;;;;0.73;0.70;;;;;;;0.43;100.00;97538.88;10289536;28;20137;-63
2022/04/17 23:55:50;;;;;;;0.70;0.70;;;;;;;0.44;100.00;97538.03;10289950;28;20069;-63
